Wutai Shan, China
Current Conditions -  °F | °C
As of 1:00 AM on Saturday 01 Nov 2014 (Local Time) from ZBSJ Reporting Station
Haze Haze  
Wind Chill: 52°   Ceiling: Unl
Heat Index: 52°   Visibility: 1.5mi
Dew Point: 46°   Wind: 4mph
Humidity: 82%   Direction: 300°WNW
Pressure: 30.12"   Gusts: NA
Location:  39.03°N, 113.53°E
Report Text: ZBSJ 311700Z 30002MPS 2500 BR NSC 11/08 Q1020 NOSIG
Loading
Personal Weather Stations






























Interactive Weather Map
Tropical Storm Tracking
New forecast layout! Learn more

10-Day Weather Forecast

Advertisements
Track Severe Weather on mobile